sensor_id;sensor_type;location;lat;lon;timestamp;P1;durP1;ratioP1;P2;durP2;ratioP2
11537;SDS011;50159;49.426;11.182;2022-10-26T00:01:09;3.50;;;3.27;;
11537;SDS011;50159;49.426;11.182;2022-10-26T00:03:38;4.07;;;3.20;;
11537;SDS011;50159;49.426;11.182;2022-10-26T00:06:08;3.07;;;2.97;;
11537;SDS011;50159;49.426;11.182;2022-10-26T00:08:39;3.30;;;3.10;;
11537;SDS011;50159;49.426;11.182;2022-10-26T00:11:07;3.90;;;3.00;;
11537;SDS011;50159;49.426;11.182;2022-10-26T00:13:35;4.83;;;3.03;;
11537;SDS011;50159;49.426;11.182;2022-10-26T00:16:09;3.77;;;3.37;;
11537;SDS011;50159;49.426;11.182;2022-10-26T00:18:48;4.77;;;3.40;;
11537;SDS011;50159;49.426;11.182;2022-10-26T00:21:15;3.40;;;3.10;;
11537;SDS011;50159;49.426;11.182;2022-10-26T00:23:43;3.47;;;3.27;;
11537;SDS011;50159;49.426;11.182;2022-10-26T00:26:10;3.20;;;2.93;;
11537;SDS011;50159;49.426;11.182;2022-10-26T00:28:37;3.83;;;2.60;;
11537;SDS011;50159;49.426;11.182;2022-10-26T00:31:08;2.83;;;2.60;;
11537;SDS011;50159;49.426;11.182;2022-10-26T00:33:40;4.90;;;3.03;;
11537;SDS011;50159;49.426;11.182;2022-10-26T00:36:07;2.40;;;2.30;;
11537;SDS011;50159;49.426;11.182;2022-10-26T00:38:35;6.53;;;2.87;;
11537;SDS011;50159;49.426;11.182;2022-10-26T00:41:03;2.87;;;2.40;;
11537;SDS011;50159;49.426;11.182;2022-10-26T00:45:57;3.37;;;2.40;;
11537;SDS011;50159;49.426;11.182;2022-10-26T00:48:33;2.60;;;2.40;;
11537;SDS011;50159;49.426;11.182;2022-10-26T00:51:07;2.47;;;2.37;;
11537;SDS011;50159;49.426;11.182;2022-10-26T00:53:44;2.00;;;1.90;;
11537;SDS011;50159;49.426;11.182;2022-10-26T00:56:11;2.70;;;2.50;;
11537;SDS011;50159;49.426;11.182;2022-10-26T00:58:38;2.33;;;2.20;;
11537;SDS011;50159;49.426;11.182;2022-10-26T01:01:06;2.07;;;2.07;;
11537;SDS011;50159;49.426;11.182;2022-10-26T01:03:33;3.27;;;3.00;;
11537;SDS011;50159;49.426;11.182;2022-10-26T01:06:03;2.10;;;2.00;;
11537;SDS011;50159;49.426;11.182;2022-10-26T01:08:31;2.17;;;1.93;;
11537;SDS011;50159;49.426;11.182;2022-10-26T01:10:59;8.20;;;2.20;;
11537;SDS011;50159;49.426;11.182;2022-10-26T01:13:27;3.80;;;2.10;;
11537;SDS011;50159;49.426;11.182;2022-10-26T01:16:05;5.10;;;2.33;;
11537;SDS011;50159;49.426;11.182;2022-10-26T01:19:17;2.03;;;1.93;;
11537;SDS011;50159;49.426;11.182;2022-10-26T01:27:37;1.60;;;1.60;;
11537;SDS011;50159;49.426;11.182;2022-10-26T01:30:18;3.33;;;2.10;;
11537;SDS011;50159;49.426;11.182;2022-10-26T01:35:48;2.10;;;2.00;;
11537;SDS011;50159;49.426;11.182;2022-10-26T01:38:53;2.93;;;2.07;;
11537;SDS011;50159;49.426;11.182;2022-10-26T01:41:53;3.00;;;2.20;;
11537;SDS011;50159;49.426;11.182;2022-10-26T01:44:32;2.93;;;2.03;;
11537;SDS011;50159;49.426;11.182;2022-10-26T01:47:11;2.37;;;2.23;;
11537;SDS011;50159;49.426;11.182;2022-10-26T01:49:42;3.63;;;1.90;;
11537;SDS011;50159;49.426;11.182;2022-10-26T01:52:14;2.23;;;2.13;;
11537;SDS011;50159;49.426;11.182;2022-10-26T01:54:44;2.20;;;2.10;;
11537;SDS011;50159;49.426;11.182;2022-10-26T01:57:12;2.20;;;2.00;;
11537;SDS011;50159;49.426;11.182;2022-10-26T01:59:59;2.03;;;1.87;;
11537;SDS011;50159;49.426;11.182;2022-10-26T02:05:48;1.60;;;1.60;;
11537;SDS011;50159;49.426;11.182;2022-10-26T02:11:22;1.47;;;1.47;;
11537;SDS011;50159;49.426;11.182;2022-10-26T02:14:09;1.90;;;1.80;;
11537;SDS011;50159;49.426;11.182;2022-10-26T02:16:58;1.93;;;1.80;;
11537;SDS011;50159;49.426;11.182;2022-10-26T02:19:39;3.03;;;1.90;;
11537;SDS011;50159;49.426;11.182;2022-10-26T02:22:46;1.90;;;1.80;;
11537;SDS011;50159;49.426;11.182;2022-10-26T02:25:17;1.87;;;1.77;;
11537;SDS011;50159;49.426;11.182;2022-10-26T02:27:52;4.17;;;2.30;;
11537;SDS011;50159;49.426;11.182;2022-10-26T02:30:25;2.13;;;1.93;;
11537;SDS011;50159;49.426;11.182;2022-10-26T02:32:53;2.07;;;1.90;;
11537;SDS011;50159;49.426;11.182;2022-10-26T02:35:24;3.07;;;1.80;;
11537;SDS011;50159;49.426;11.182;2022-10-26T02:37:56;1.80;;;1.70;;
11537;SDS011;50159;49.426;11.182;2022-10-26T02:40:27;1.97;;;1.87;;
11537;SDS011;50159;49.426;11.182;2022-10-26T02:42:58;2.13;;;2.00;;
11537;SDS011;50159;49.426;11.182;2022-10-26T02:45:32;4.50;;;1.90;;
11537;SDS011;50159;49.426;11.182;2022-10-26T02:48:08;1.67;;;1.67;;
11537;SDS011;50159;49.426;11.182;2022-10-26T02:50:39;1.60;;;1.50;;
11537;SDS011;50159;49.426;11.182;2022-10-26T02:53:35;2.00;;;1.90;;
11537;SDS011;50159;49.426;11.182;2022-10-26T02:56:13;4.87;;;2.20;;
11537;SDS011;50159;49.426;11.182;2022-10-26T02:58:51;1.93;;;1.90;;
11537;SDS011;50159;49.426;11.182;2022-10-26T03:01:24;2.03;;;1.93;;
11537;SDS011;50159;49.426;11.182;2022-10-26T03:03:57;1.70;;;1.70;;
11537;SDS011;50159;49.426;11.182;2022-10-26T03:06:25;3.70;;;1.93;;
11537;SDS011;50159;49.426;11.182;2022-10-26T03:08:52;2.20;;;2.10;;
11537;SDS011;50159;49.426;11.182;2022-10-26T03:11:19;2.00;;;2.00;;
11537;SDS011;50159;49.426;11.182;2022-10-26T03:13:46;4.77;;;2.00;;
11537;SDS011;50159;49.426;11.182;2022-10-26T03:16:12;2.03;;;1.93;;
11537;SDS011;50159;49.426;11.182;2022-10-26T03:18:39;3.17;;;2.03;;
11537;SDS011;50159;49.426;11.182;2022-10-26T03:21:06;2.70;;;1.90;;
11537;SDS011;50159;49.426;11.182;2022-10-26T03:23:33;1.70;;;1.70;;
11537;SDS011;50159;49.426;11.182;2022-10-26T03:25:59;4.23;;;1.97;;
11537;SDS011;50159;49.426;11.182;2022-10-26T03:28:26;1.93;;;1.60;;
11537;SDS011;50159;49.426;11.182;2022-10-26T03:30:53;2.70;;;1.70;;
11537;SDS011;50159;49.426;11.182;2022-10-26T03:33:20;1.90;;;1.60;;
11537;SDS011;50159;49.426;11.182;2022-10-26T03:35:55;2.10;;;1.97;;
11537;SDS011;50159;49.426;11.182;2022-10-26T03:38:22;2.00;;;1.93;;
11537;SDS011;50159;49.426;11.182;2022-10-26T03:40:49;2.70;;;1.80;;
11537;SDS011;50159;49.426;11.182;2022-10-26T03:43:16;3.13;;;1.90;;
11537;SDS011;50159;49.426;11.182;2022-10-26T03:45:43;2.20;;;2.03;;
11537;SDS011;50159;49.426;11.182;2022-10-26T03:48:10;2.20;;;2.10;;
11537;SDS011;50159;49.426;11.182;2022-10-26T03:50:37;1.90;;;1.80;;
11537;SDS011;50159;49.426;11.182;2022-10-26T03:53:04;2.63;;;1.60;;
11537;SDS011;50159;49.426;11.182;2022-10-26T03:55:32;7.47;;;2.00;;
11537;SDS011;50159;49.426;11.182;2022-10-26T03:57:59;2.20;;;2.10;;
11537;SDS011;50159;49.426;11.182;2022-10-26T04:00:25;2.50;;;2.30;;
11537;SDS011;50159;49.426;11.182;2022-10-26T04:02:56;3.07;;;2.87;;
11537;SDS011;50159;49.426;11.182;2022-10-26T04:05:25;2.83;;;2.63;;
11537;SDS011;50159;49.426;11.182;2022-10-26T04:07:55;2.83;;;2.67;;
11537;SDS011;50159;49.426;11.182;2022-10-26T04:10:25;3.17;;;2.97;;
11537;SDS011;50159;49.426;11.182;2022-10-26T04:12:53;4.77;;;3.40;;
11537;SDS011;50159;49.426;11.182;2022-10-26T04:15:21;3.70;;;3.53;;
11537;SDS011;50159;49.426;11.182;2022-10-26T04:17:50;3.97;;;3.60;;
11537;SDS011;50159;49.426;11.182;2022-10-26T04:20:22;4.17;;;3.77;;
11537;SDS011;50159;49.426;11.182;2022-10-26T04:23:00;3.80;;;3.60;;
11537;SDS011;50159;49.426;11.182;2022-10-26T04:25:30;3.30;;;2.83;;
11537;SDS011;50159;49.426;11.182;2022-10-26T04:27:59;4.00;;;3.00;;
11537;SDS011;50159;49.426;11.182;2022-10-26T04:30:28;2.80;;;2.70;;
11537;SDS011;50159;49.426;11.182;2022-10-26T04:32:57;2.53;;;2.43;;
11537;SDS011;50159;49.426;11.182;2022-10-26T04:35:23;2.50;;;2.40;;
11537;SDS011;50159;49.426;11.182;2022-10-26T04:37:50;2.80;;;2.60;;
11537;SDS011;50159;49.426;11.182;2022-10-26T04:40:22;2.47;;;2.27;;
11537;SDS011;50159;49.426;11.182;2022-10-26T04:42:49;2.17;;;2.07;;
11537;SDS011;50159;49.426;11.182;2022-10-26T04:45:16;1.80;;;1.80;;
11537;SDS011;50159;49.426;11.182;2022-10-26T04:47:43;1.80;;;1.80;;
11537;SDS011;50159;49.426;11.182;2022-10-26T04:50:10;1.60;;;1.60;;
11537;SDS011;50159;49.426;11.182;2022-10-26T04:52:39;2.30;;;1.70;;
11537;SDS011;50159;49.426;11.182;2022-10-26T04:55:06;1.90;;;1.80;;
11537;SDS011;50159;49.426;11.182;2022-10-26T04:57:33;1.60;;;1.60;;
11537;SDS011;50159;49.426;11.182;2022-10-26T05:00:02;2.00;;;1.90;;
11537;SDS011;50159;49.426;11.182;2022-10-26T05:02:30;1.87;;;1.87;;
11537;SDS011;50159;49.426;11.182;2022-10-26T05:04:57;3.03;;;1.87;;
11537;SDS011;50159;49.426;11.182;2022-10-26T05:07:24;1.70;;;1.70;;
11537;SDS011;50159;49.426;11.182;2022-10-26T05:09:51;5.03;;;2.10;;
11537;SDS011;50159;49.426;11.182;2022-10-26T05:12:18;3.23;;;1.80;;
11537;SDS011;50159;49.426;11.182;2022-10-26T05:14:45;1.80;;;1.80;;
11537;SDS011;50159;49.426;11.182;2022-10-26T05:17:12;3.47;;;2.00;;
11537;SDS011;50159;49.426;11.182;2022-10-26T05:19:39;2.40;;;2.20;;
11537;SDS011;50159;49.426;11.182;2022-10-26T05:22:06;2.13;;;2.03;;
11537;SDS011;50159;49.426;11.182;2022-10-26T05:24:32;2.20;;;2.00;;
11537;SDS011;50159;49.426;11.182;2022-10-26T05:26:59;3.47;;;2.00;;
11537;SDS011;50159;49.426;11.182;2022-10-26T05:29:26;2.37;;;2.23;;
11537;SDS011;50159;49.426;11.182;2022-10-26T05:31:54;2.40;;;2.00;;
11537;SDS011;50159;49.426;11.182;2022-10-26T05:34:21;3.50;;;1.80;;
11537;SDS011;50159;49.426;11.182;2022-10-26T05:36:48;2.00;;;1.90;;
11537;SDS011;50159;49.426;11.182;2022-10-26T05:39:17;3.20;;;2.07;;
11537;SDS011;50159;49.426;11.182;2022-10-26T05:41:44;3.33;;;2.00;;
11537;SDS011;50159;49.426;11.182;2022-10-26T05:44:10;2.30;;;1.67;;
11537;SDS011;50159;49.426;11.182;2022-10-26T05:46:37;1.97;;;1.87;;
11537;SDS011;50159;49.426;11.182;2022-10-26T05:49:04;1.90;;;1.80;;
11537;SDS011;50159;49.426;11.182;2022-10-26T05:51:31;5.80;;;1.90;;
11537;SDS011;50159;49.426;11.182;2022-10-26T05:53:59;2.43;;;1.90;;
11537;SDS011;50159;49.426;11.182;2022-10-26T05:56:33;1.80;;;1.70;;
11537;SDS011;50159;49.426;11.182;2022-10-26T05:59:02;3.47;;;2.07;;
11537;SDS011;50159;49.426;11.182;2022-10-26T06:01:46;1.50;;;1.50;;
11537;SDS011;50159;49.426;11.182;2022-10-26T06:04:35;1.90;;;1.70;;
11537;SDS011;50159;49.426;11.182;2022-10-26T06:07:14;4.10;;;1.83;;
11537;SDS011;50159;49.426;11.182;2022-10-26T06:09:46;2.23;;;2.00;;
11537;SDS011;50159;49.426;11.182;2022-10-26T06:12:14;1.93;;;1.83;;
11537;SDS011;50159;49.426;11.182;2022-10-26T06:14:45;2.37;;;2.17;;
11537;SDS011;50159;49.426;11.182;2022-10-26T06:17:22;2.40;;;2.20;;
11537;SDS011;50159;49.426;11.182;2022-10-26T06:20:26;3.33;;;2.70;;
11537;SDS011;50159;49.426;11.182;2022-10-26T06:23:43;2.53;;;2.37;;
11537;SDS011;50159;49.426;11.182;2022-10-26T06:26:29;2.73;;;2.53;;
11537;SDS011;50159;49.426;11.182;2022-10-26T06:32:15;2.87;;;2.77;;
11537;SDS011;50159;49.426;11.182;2022-10-26T06:34:44;2.50;;;2.40;;
11537;SDS011;50159;49.426;11.182;2022-10-26T06:37:14;3.77;;;2.43;;
11537;SDS011;50159;49.426;11.182;2022-10-26T06:39:43;2.83;;;2.50;;
11537;SDS011;50159;49.426;11.182;2022-10-26T06:42:17;3.20;;;2.80;;
11537;SDS011;50159;49.426;11.182;2022-10-26T06:44:45;2.90;;;2.60;;
11537;SDS011;50159;49.426;11.182;2022-10-26T06:47:22;4.97;;;3.00;;
11537;SDS011;50159;49.426;11.182;2022-10-26T06:50:08;3.10;;;2.83;;
11537;SDS011;50159;49.426;11.182;2022-10-26T06:52:50;2.73;;;2.50;;
11537;SDS011;50159;49.426;11.182;2022-10-26T06:55:29;3.33;;;3.03;;
11537;SDS011;50159;49.426;11.182;2022-10-26T06:58:10;2.57;;;2.47;;
11537;SDS011;50159;49.426;11.182;2022-10-26T07:00:43;2.47;;;2.27;;
11537;SDS011;50159;49.426;11.182;2022-10-26T07:03:13;2.70;;;2.50;;
11537;SDS011;50159;49.426;11.182;2022-10-26T07:05:40;2.33;;;2.23;;
11537;SDS011;50159;49.426;11.182;2022-10-26T07:08:08;2.37;;;2.23;;
11537;SDS011;50159;49.426;11.182;2022-10-26T07:10:36;2.40;;;2.30;;
11537;SDS011;50159;49.426;11.182;2022-10-26T07:13:04;2.47;;;2.27;;
11537;SDS011;50159;49.426;11.182;2022-10-26T07:15:32;1.90;;;1.90;;
11537;SDS011;50159;49.426;11.182;2022-10-26T07:18:01;2.33;;;2.13;;
11537;SDS011;50159;49.426;11.182;2022-10-26T07:20:36;2.40;;;2.30;;
11537;SDS011;50159;49.426;11.182;2022-10-26T07:23:06;2.00;;;2.00;;
11537;SDS011;50159;49.426;11.182;2022-10-26T07:25:37;2.47;;;2.37;;
11537;SDS011;50159;49.426;11.182;2022-10-26T07:28:06;3.73;;;2.17;;
11537;SDS011;50159;49.426;11.182;2022-10-26T07:30:35;2.13;;;2.00;;
11537;SDS011;50159;49.426;11.182;2022-10-26T07:33:11;5.60;;;2.57;;
11537;SDS011;50159;49.426;11.182;2022-10-26T07:35:39;2.77;;;2.57;;
11537;SDS011;50159;49.426;11.182;2022-10-26T07:38:06;2.40;;;2.23;;
11537;SDS011;50159;49.426;11.182;2022-10-26T07:40:34;3.10;;;2.40;;
11537;SDS011;50159;49.426;11.182;2022-10-26T07:43:03;2.23;;;2.03;;
11537;SDS011;50159;49.426;11.182;2022-10-26T07:45:30;2.50;;;2.40;;
11537;SDS011;50159;49.426;11.182;2022-10-26T07:47:57;2.47;;;2.37;;
11537;SDS011;50159;49.426;11.182;2022-10-26T07:50:24;2.50;;;2.40;;
11537;SDS011;50159;49.426;11.182;2022-10-26T07:52:51;2.70;;;2.60;;
11537;SDS011;50159;49.426;11.182;2022-10-26T07:55:18;2.13;;;2.03;;
11537;SDS011;50159;49.426;11.182;2022-10-26T07:57:45;2.33;;;2.20;;
11537;SDS011;50159;49.426;11.182;2022-10-26T08:00:19;2.53;;;2.33;;
11537;SDS011;50159;49.426;11.182;2022-10-26T08:02:46;2.40;;;2.30;;
11537;SDS011;50159;49.426;11.182;2022-10-26T08:05:13;3.63;;;2.13;;
11537;SDS011;50159;49.426;11.182;2022-10-26T08:07:41;2.70;;;2.40;;
11537;SDS011;50159;49.426;11.182;2022-10-26T08:10:10;3.93;;;2.40;;
11537;SDS011;50159;49.426;11.182;2022-10-26T08:12:37;4.90;;;2.87;;
11537;SDS011;50159;49.426;11.182;2022-10-26T08:15:05;2.77;;;2.57;;
11537;SDS011;50159;49.426;11.182;2022-10-26T08:17:33;2.20;;;2.10;;
11537;SDS011;50159;49.426;11.182;2022-10-26T08:20:00;2.40;;;2.20;;
11537;SDS011;50159;49.426;11.182;2022-10-26T08:22:27;2.30;;;2.03;;
11537;SDS011;50159;49.426;11.182;2022-10-26T08:24:55;2.70;;;2.50;;
11537;SDS011;50159;49.426;11.182;2022-10-26T08:27:22;2.60;;;2.50;;
11537;SDS011;50159;49.426;11.182;2022-10-26T08:29:49;2.70;;;2.60;;
11537;SDS011;50159;49.426;11.182;2022-10-26T08:32:16;2.70;;;2.50;;
11537;SDS011;50159;49.426;11.182;2022-10-26T08:34:42;2.50;;;2.30;;
11537;SDS011;50159;49.426;11.182;2022-10-26T08:37:09;3.17;;;2.30;;
11537;SDS011;50159;49.426;11.182;2022-10-26T08:39:36;2.07;;;2.03;;
11537;SDS011;50159;49.426;11.182;2022-10-26T08:42:04;2.30;;;2.10;;
11537;SDS011;50159;49.426;11.182;2022-10-26T08:44:46;2.20;;;2.10;;
11537;SDS011;50159;49.426;11.182;2022-10-26T08:47:27;2.40;;;2.30;;
11537;SDS011;50159;49.426;11.182;2022-10-26T08:50:09;2.97;;;2.40;;
11537;SDS011;50159;49.426;11.182;2022-10-26T08:53:14;2.53;;;2.33;;
11537;SDS011;50159;49.426;11.182;2022-10-26T08:56:12;1.97;;;1.87;;
11537;SDS011;50159;49.426;11.182;2022-10-26T08:58:53;3.00;;;2.40;;
11537;SDS011;50159;49.426;11.182;2022-10-26T09:01:27;2.17;;;2.07;;
11537;SDS011;50159;49.426;11.182;2022-10-26T09:03:57;2.27;;;2.13;;
11537;SDS011;50159;49.426;11.182;2022-10-26T09:06:48;2.30;;;1.90;;
11537;SDS011;50159;49.426;11.182;2022-10-26T09:09:29;2.30;;;2.20;;
11537;SDS011;50159;49.426;11.182;2022-10-26T09:15:37;3.27;;;2.37;;
11537;SDS011;50159;49.426;11.182;2022-10-26T09:24:14;3.00;;;2.10;;
11537;SDS011;50159;49.426;11.182;2022-10-26T09:26:54;1.83;;;1.73;;
11537;SDS011;50159;49.426;11.182;2022-10-26T09:29:54;3.73;;;2.10;;
11537;SDS011;50159;49.426;11.182;2022-10-26T09:32:34;2.43;;;2.23;;
11537;SDS011;50159;49.426;11.182;2022-10-26T09:35:14;4.63;;;2.30;;
11537;SDS011;50159;49.426;11.182;2022-10-26T09:38:15;2.93;;;2.13;;
11537;SDS011;50159;49.426;11.182;2022-10-26T09:44:20;2.63;;;2.43;;
11537;SDS011;50159;49.426;11.182;2022-10-26T09:47:05;3.27;;;2.33;;
11537;SDS011;50159;49.426;11.182;2022-10-26T09:50:12;3.03;;;2.20;;
11537;SDS011;50159;49.426;11.182;2022-10-26T09:53:04;3.20;;;2.53;;
11537;SDS011;50159;49.426;11.182;2022-10-26T09:55:32;3.03;;;2.13;;
11537;SDS011;50159;49.426;11.182;2022-10-26T09:58:09;2.37;;;2.20;;
11537;SDS011;50159;49.426;11.182;2022-10-26T10:00:51;2.43;;;2.23;;
11537;SDS011;50159;49.426;11.182;2022-10-26T10:03:23;2.57;;;2.13;;
11537;SDS011;50159;49.426;11.182;2022-10-26T10:05:53;4.90;;;2.60;;
11537;SDS011;50159;49.426;11.182;2022-10-26T10:11:39;2.80;;;2.40;;
11537;SDS011;50159;49.426;11.182;2022-10-26T10:14:13;2.43;;;2.23;;
11537;SDS011;50159;49.426;11.182;2022-10-26T10:16:49;5.77;;;2.23;;
11537;SDS011;50159;49.426;11.182;2022-10-26T10:19:20;3.60;;;3.30;;
11537;SDS011;50159;49.426;11.182;2022-10-26T10:21:54;3.47;;;3.20;;
11537;SDS011;50159;49.426;11.182;2022-10-26T10:24:37;2.60;;;2.40;;
11537;SDS011;50159;49.426;11.182;2022-10-26T10:27:15;7.17;;;2.60;;
11537;SDS011;50159;49.426;11.182;2022-10-26T10:29:45;2.53;;;2.30;;
11537;SDS011;50159;49.426;11.182;2022-10-26T10:32:15;3.93;;;2.10;;
11537;SDS011;50159;49.426;11.182;2022-10-26T10:34:49;2.63;;;2.43;;
11537;SDS011;50159;49.426;11.182;2022-10-26T10:37:36;2.30;;;2.00;;
11537;SDS011;50159;49.426;11.182;2022-10-26T10:40:19;4.30;;;1.87;;
11537;SDS011;50159;49.426;11.182;2022-10-26T10:42:50;2.70;;;2.17;;
11537;SDS011;50159;49.426;11.182;2022-10-26T10:45:26;3.30;;;2.37;;
11537;SDS011;50159;49.426;11.182;2022-10-26T10:50:38;3.00;;;2.17;;
11537;SDS011;50159;49.426;11.182;2022-10-26T10:56:30;3.17;;;2.43;;
11537;SDS011;50159;49.426;11.182;2022-10-26T11:08:24;2.00;;;1.83;;
11537;SDS011;50159;49.426;11.182;2022-10-26T11:16:24;2.50;;;2.27;;
11537;SDS011;50159;49.426;11.182;2022-10-26T11:19:04;4.03;;;2.30;;
11537;SDS011;50159;49.426;11.182;2022-10-26T11:21:43;2.63;;;2.37;;
11537;SDS011;50159;49.426;11.182;2022-10-26T11:24:23;3.47;;;2.43;;
11537;SDS011;50159;49.426;11.182;2022-10-26T11:26:59;2.00;;;1.90;;
11537;SDS011;50159;49.426;11.182;2022-10-26T11:32:36;5.33;;;2.40;;
11537;SDS011;50159;49.426;11.182;2022-10-26T11:35:13;2.33;;;2.10;;
11537;SDS011;50159;49.426;11.182;2022-10-26T11:37:56;2.27;;;2.07;;
11537;SDS011;50159;49.426;11.182;2022-10-26T11:40:59;2.63;;;2.17;;
11537;SDS011;50159;49.426;11.182;2022-10-26T11:43:47;2.70;;;2.17;;
11537;SDS011;50159;49.426;11.182;2022-10-26T11:46:23;2.47;;;2.27;;
11537;SDS011;50159;49.426;11.182;2022-10-26T11:49:26;3.40;;;2.40;;
11537;SDS011;50159;49.426;11.182;2022-10-26T11:52:17;4.07;;;2.70;;
11537;SDS011;50159;49.426;11.182;2022-10-26T11:54:55;4.43;;;2.37;;
11537;SDS011;50159;49.426;11.182;2022-10-26T11:57:33;5.33;;;2.17;;
11537;SDS011;50159;49.426;11.182;2022-10-26T12:00:07;2.73;;;2.53;;
11537;SDS011;50159;49.426;11.182;2022-10-26T12:05:52;3.63;;;2.37;;
11537;SDS011;50159;49.426;11.182;2022-10-26T12:08:23;2.87;;;2.67;;
11537;SDS011;50159;49.426;11.182;2022-10-26T12:14:04;3.70;;;2.33;;
11537;SDS011;50159;49.426;11.182;2022-10-26T12:19:28;2.50;;;2.30;;
11537;SDS011;50159;49.426;11.182;2022-10-26T12:22:12;3.57;;;2.47;;
11537;SDS011;50159;49.426;11.182;2022-10-26T12:24:46;2.67;;;2.23;;
11537;SDS011;50159;49.426;11.182;2022-10-26T12:33:00;2.83;;;2.40;;
11537;SDS011;50159;49.426;11.182;2022-10-26T12:35:41;2.47;;;2.10;;
11537;SDS011;50159;49.426;11.182;2022-10-26T12:43:33;4.07;;;2.13;;
11537;SDS011;50159;49.426;11.182;2022-10-26T12:56:37;1.73;;;1.70;;
11537;SDS011;50159;49.426;11.182;2022-10-26T12:59:51;2.23;;;2.00;;
11537;SDS011;50159;49.426;11.182;2022-10-26T13:09:07;2.47;;;2.30;;
11537;SDS011;50159;49.426;11.182;2022-10-26T13:11:46;3.80;;;2.47;;
11537;SDS011;50159;49.426;11.182;2022-10-26T13:14:21;4.87;;;2.57;;
11537;SDS011;50159;49.426;11.182;2022-10-26T13:16:51;3.40;;;2.53;;
11537;SDS011;50159;49.426;11.182;2022-10-26T13:19:22;3.10;;;1.97;;
11537;SDS011;50159;49.426;11.182;2022-10-26T13:22:02;2.30;;;2.20;;
11537;SDS011;50159;49.426;11.182;2022-10-26T13:24:30;3.70;;;2.33;;
11537;SDS011;50159;49.426;11.182;2022-10-26T13:30:11;2.70;;;1.90;;
11537;SDS011;50159;49.426;11.182;2022-10-26T13:32:29;2.80;;;2.27;;
11537;SDS011;50159;49.426;11.182;2022-10-26T13:35:01;2.30;;;2.10;;
11537;SDS011;50159;49.426;11.182;2022-10-26T13:37:30;2.97;;;2.23;;
11537;SDS011;50159;49.426;11.182;2022-10-26T13:40:02;2.13;;;1.87;;
11537;SDS011;50159;49.426;11.182;2022-10-26T13:42:40;4.83;;;2.20;;
11537;SDS011;50159;49.426;11.182;2022-10-26T13:45:14;2.10;;;1.90;;
11537;SDS011;50159;49.426;11.182;2022-10-26T13:51:04;2.53;;;2.17;;
11537;SDS011;50159;49.426;11.182;2022-10-26T13:53:52;2.57;;;2.00;;
11537;SDS011;50159;49.426;11.182;2022-10-26T13:56:32;7.87;;;2.20;;
11537;SDS011;50159;49.426;11.182;2022-10-26T13:59:09;4.97;;;2.07;;
11537;SDS011;50159;49.426;11.182;2022-10-26T14:01:38;4.13;;;2.17;;
11537;SDS011;50159;49.426;11.182;2022-10-26T14:04:15;1.80;;;1.67;;
11537;SDS011;50159;49.426;11.182;2022-10-26T14:06:50;1.50;;;1.40;;
11537;SDS011;50159;49.426;11.182;2022-10-26T14:09:20;4.30;;;2.60;;
11537;SDS011;50159;49.426;11.182;2022-10-26T14:11:48;1.83;;;1.73;;
11537;SDS011;50159;49.426;11.182;2022-10-26T14:14:21;1.73;;;1.60;;
11537;SDS011;50159;49.426;11.182;2022-10-26T14:16:52;2.10;;;1.60;;
11537;SDS011;50159;49.426;11.182;2022-10-26T14:19:27;3.33;;;1.70;;
11537;SDS011;50159;49.426;11.182;2022-10-26T14:21:55;1.83;;;1.53;;
11537;SDS011;50159;49.426;11.182;2022-10-26T14:24:27;1.53;;;1.43;;
11537;SDS011;50159;49.426;11.182;2022-10-26T14:27:23;1.43;;;1.40;;
11537;SDS011;50159;49.426;11.182;2022-10-26T14:30:18;2.73;;;1.80;;
11537;SDS011;50159;49.426;11.182;2022-10-26T14:32:52;4.27;;;2.07;;
11537;SDS011;50159;49.426;11.182;2022-10-26T14:35:21;2.33;;;1.37;;
11537;SDS011;50159;49.426;11.182;2022-10-26T14:38:02;9.43;;;1.93;;
11537;SDS011;50159;49.426;11.182;2022-10-26T14:40:42;3.97;;;2.03;;
11537;SDS011;50159;49.426;11.182;2022-10-26T14:43:10;3.77;;;1.97;;
11537;SDS011;50159;49.426;11.182;2022-10-26T14:45:47;3.93;;;1.93;;
11537;SDS011;50159;49.426;11.182;2022-10-26T14:48:34;2.37;;;1.60;;
11537;SDS011;50159;49.426;11.182;2022-10-26T14:51:09;2.53;;;2.10;;
11537;SDS011;50159;49.426;11.182;2022-10-26T14:53:46;5.23;;;1.80;;
11537;SDS011;50159;49.426;11.182;2022-10-26T14:59:11;1.73;;;1.70;;
11537;SDS011;50159;49.426;11.182;2022-10-26T15:04:41;2.20;;;1.90;;
11537;SDS011;50159;49.426;11.182;2022-10-26T15:07:34;1.53;;;1.53;;
11537;SDS011;50159;49.426;11.182;2022-10-26T15:10:03;1.80;;;1.70;;
11537;SDS011;50159;49.426;11.182;2022-10-26T15:18:03;1.60;;;1.60;;
11537;SDS011;50159;49.426;11.182;2022-10-26T15:20:30;1.80;;;1.70;;
11537;SDS011;50159;49.426;11.182;2022-10-26T15:22:57;1.97;;;1.83;;
11537;SDS011;50159;49.426;11.182;2022-10-26T15:25:29;2.63;;;1.67;;
11537;SDS011;50159;49.426;11.182;2022-10-26T15:31:03;2.03;;;1.97;;
11537;SDS011;50159;49.426;11.182;2022-10-26T15:38:52;2.30;;;2.10;;
11537;SDS011;50159;49.426;11.182;2022-10-26T15:43:52;1.73;;;1.70;;
11537;SDS011;50159;49.426;11.182;2022-10-26T15:46:22;2.23;;;2.13;;
11537;SDS011;50159;49.426;11.182;2022-10-26T15:48:55;2.47;;;2.23;;
11537;SDS011;50159;49.426;11.182;2022-10-26T15:51:25;1.97;;;1.87;;
11537;SDS011;50159;49.426;11.182;2022-10-26T15:53:58;5.80;;;2.37;;
11537;SDS011;50159;49.426;11.182;2022-10-26T15:56:29;2.97;;;1.83;;
11537;SDS011;50159;49.426;11.182;2022-10-26T15:58:57;2.20;;;2.00;;
11537;SDS011;50159;49.426;11.182;2022-10-26T16:01:25;2.33;;;2.13;;
11537;SDS011;50159;49.426;11.182;2022-10-26T16:03:54;3.70;;;2.00;;
11537;SDS011;50159;49.426;11.182;2022-10-26T16:06:28;2.73;;;2.17;;
11537;SDS011;50159;49.426;11.182;2022-10-26T16:09:01;2.40;;;2.30;;
11537;SDS011;50159;49.426;11.182;2022-10-26T16:11:30;2.83;;;2.57;;
11537;SDS011;50159;49.426;11.182;2022-10-26T16:13:58;2.10;;;2.00;;
11537;SDS011;50159;49.426;11.182;2022-10-26T16:16:29;2.57;;;2.20;;
11537;SDS011;50159;49.426;11.182;2022-10-26T16:18:56;10.43;;;2.70;;
11537;SDS011;50159;49.426;11.182;2022-10-26T16:21:43;2.87;;;2.63;;
11537;SDS011;50159;49.426;11.182;2022-10-26T16:24:10;3.63;;;2.47;;
11537;SDS011;50159;49.426;11.182;2022-10-26T16:26:36;2.37;;;2.27;;
11537;SDS011;50159;49.426;11.182;2022-10-26T16:29:03;2.80;;;2.60;;
11537;SDS011;50159;49.426;11.182;2022-10-26T16:31:30;2.70;;;2.50;;
11537;SDS011;50159;49.426;11.182;2022-10-26T16:33:56;2.77;;;2.57;;
11537;SDS011;50159;49.426;11.182;2022-10-26T16:36:29;7.17;;;3.10;;
11537;SDS011;50159;49.426;11.182;2022-10-26T16:38:59;3.57;;;2.83;;
11537;SDS011;50159;49.426;11.182;2022-10-26T16:41:31;4.87;;;3.17;;
11537;SDS011;50159;49.426;11.182;2022-10-26T16:43:58;4.93;;;2.70;;
11537;SDS011;50159;49.426;11.182;2022-10-26T16:46:25;5.30;;;2.97;;
11537;SDS011;50159;49.426;11.182;2022-10-26T16:48:51;4.23;;;3.07;;
11537;SDS011;50159;49.426;11.182;2022-10-26T16:51:19;3.30;;;3.00;;
11537;SDS011;50159;49.426;11.182;2022-10-26T16:53:50;4.97;;;2.93;;
11537;SDS011;50159;49.426;11.182;2022-10-26T16:56:20;5.27;;;3.53;;
11537;SDS011;50159;49.426;11.182;2022-10-26T16:58:53;3.67;;;3.40;;
11537;SDS011;50159;49.426;11.182;2022-10-26T17:01:20;5.30;;;4.00;;
11537;SDS011;50159;49.426;11.182;2022-10-26T17:03:48;4.00;;;3.70;;
11537;SDS011;50159;49.426;11.182;2022-10-26T17:06:16;6.37;;;4.70;;
11537;SDS011;50159;49.426;11.182;2022-10-26T17:08:43;6.87;;;4.80;;
11537;SDS011;50159;49.426;11.182;2022-10-26T17:11:12;7.10;;;4.40;;
11537;SDS011;50159;49.426;11.182;2022-10-26T17:13:42;4.80;;;4.33;;
11537;SDS011;50159;49.426;11.182;2022-10-26T17:16:14;4.90;;;4.30;;